Time;durP1;ratioP1;P1;durP2;ratioP2;P2;SDS_P1;SDS_P2;PMS_P1;PMS_P2;Temp;Humidity;BMP_temperature;BMP_pressure;BME280_temperature;BME280_humidity;BME280_pressure;Samples;Min_cycle;Max_cycle;Signal;HPM_P1;HPM_P2
2020/12/21 00:00:28;;;;;;;62.90;30.63;;;3.00;99.90;;;;;;5170784;28;20198;-71
2020/12/21 00:03:13;;;;;;;64.83;30.83;;;3.00;99.90;;;;;;5172535;28;20191;-71
2020/12/21 00:05:45;;;;;;;65.90;31.20;;;3.00;99.90;;;;;;5188015;28;20195;-71
2020/12/21 00:08:16;;;;;;;73.13;31.17;;;3.00;99.90;;;;;;5187557;28;20210;-70
2020/12/21 00:10:51;;;;;;;65.43;31.03;;;3.00;99.90;;;;;;5170228;28;20206;-69
2020/12/21 00:13:24;;;;;;;66.50;32.03;;;3.00;99.90;;;;;;5188020;28;20191;-71
2020/12/21 00:15:56;;;;;;;65.90;31.93;;;3.00;99.90;;;;;;5187722;28;20238;-71
2020/12/21 00:18:28;;;;;;;67.27;31.67;;;3.00;99.90;;;;;;5187750;28;20569;-70
2020/12/21 00:20:59;;;;;;;64.13;31.47;;;3.00;99.90;;;;;;5187597;28;20188;-71
2020/12/21 00:23:31;;;;;;;65.20;30.60;;;3.00;99.90;;;;;;5187978;28;20199;-71
2020/12/21 00:26:02;;;;;;;70.17;31.47;;;3.00;99.90;;;;;;5187528;28;20191;-71
2020/12/21 00:28:33;;;;;;;63.17;29.67;;;3.00;99.90;;;;;;5187975;28;20195;-72
2020/12/21 00:31:05;;;;;;;63.33;29.63;;;3.00;99.90;;;;;;5187837;28;20213;-70
2020/12/21 00:33:38;;;;;;;57.83;27.60;;;3.00;99.90;;;;;;5187587;28;20215;-71
2020/12/21 00:36:10;;;;;;;60.57;28.27;;;3.00;99.90;;;;;;5186891;28;20187;-69
2020/12/21 00:38:41;;;;;;;58.13;28.20;;;3.00;99.90;;;;;;5186977;28;20222;-71
2020/12/21 00:41:15;;;;;;;63.57;29.47;;;3.00;99.90;;;;;;5187377;28;20192;-71
2020/12/21 00:43:48;;;;;;;63.00;28.50;;;3.00;99.90;;;;;;5187077;28;20202;-71
2020/12/21 00:46:22;;;;;;;58.77;27.43;;;3.00;99.90;;;;;;5187282;28;20195;-70
2020/12/21 00:48:54;;;;;;;58.20;27.43;;;3.00;99.90;;;;;;5187220;28;20202;-71
2020/12/21 00:51:26;;;;;;;58.40;27.47;;;2.90;99.90;;;;;;5187215;28;20620;-69
2020/12/21 00:53:58;;;;;;;56.17;27.30;;;3.00;99.90;;;;;;5186764;28;20662;-71
2020/12/21 00:56:29;;;;;;;60.90;28.30;;;2.90;99.90;;;;;;5187100;28;20195;-70
2020/12/21 00:59:00;;;;;;;58.90;29.50;;;2.90;99.90;;;;;;5187011;28;20689;-70
2020/12/21 01:01:33;;;;;;;60.17;27.00;;;2.90;99.90;;;;;;5186754;28;20191;-70
2020/12/21 01:04:05;;;;;;;56.13;26.73;;;2.90;99.90;;;;;;5186666;28;20195;-71
2020/12/21 01:06:37;;;;;;;56.63;25.97;;;2.90;99.90;;;;;;5169459;28;20540;-69
2020/12/21 01:09:12;;;;;;;60.83;26.37;;;2.90;99.90;;;;;;5186512;28;20191;-71
2020/12/21 01:11:44;;;;;;;54.57;26.30;;;2.90;99.90;;;;;;5169628;28;20282;-71
2020/12/21 01:14:15;;;;;;;54.87;25.40;;;2.80;99.90;;;;;;5186988;28;20549;-71
2020/12/21 01:16:46;;;;;;;55.00;25.87;;;2.80;99.90;;;;;;5186475;28;20254;-73
2020/12/21 01:19:18;;;;;;;55.40;26.07;;;2.80;99.90;;;;;;5187442;28;20214;-71
2020/12/21 01:21:49;;;;;;;64.03;27.43;;;2.70;99.90;;;;;;5188992;28;20656;-70
2020/12/21 01:24:20;;;;;;;57.93;27.00;;;2.70;99.90;;;;;;5187202;28;20202;-71
2020/12/21 01:26:52;;;;;;;57.00;25.90;;;2.70;99.90;;;;;;5187003;28;20191;-73
2020/12/21 01:29:23;;;;;;;56.23;26.73;;;2.70;99.90;;;;;;5186986;28;20642;-72
2020/12/21 01:31:55;;;;;;;57.70;26.60;;;2.70;99.90;;;;;;5186765;28;20195;-72
2020/12/21 01:34:26;;;;;;;57.13;25.80;;;2.70;99.90;;;;;;5186966;28;20201;-71
2020/12/21 01:36:57;;;;;;;61.93;27.20;;;2.60;99.90;;;;;;5186489;28;20199;-71
2020/12/21 01:39:29;;;;;;;61.70;27.33;;;2.60;99.90;;;;;;5186347;28;20226;-70
2020/12/21 01:42:01;;;;;;;58.80;26.90;;;2.60;99.90;;;;;;5186283;28;20195;-70
2020/12/21 01:44:33;;;;;;;57.17;26.60;;;2.60;99.90;;;;;;5168824;28;20195;-70
2020/12/21 01:47:04;;;;;;;60.67;26.33;;;2.60;99.90;;;;;;5170335;28;20548;-70
2020/12/21 01:49:37;;;;;;;58.10;27.10;;;2.60;99.90;;;;;;5190868;28;20222;-70
2020/12/21 01:52:17;;;;;;;59.23;25.80;;;2.60;99.90;;;;;;5190688;28;20225;-70
2020/12/21 01:54:49;;;;;;;59.63;27.07;;;2.60;99.90;;;;;;5190818;28;20280;-70
2020/12/21 01:57:20;;;;;;;56.27;26.77;;;2.60;99.90;;;;;;5190420;28;20190;-72
2020/12/21 01:59:52;;;;;;;60.40;27.80;;;2.50;99.90;;;;;;5172706;28;20199;-71
2020/12/21 02:02:23;;;;;;;59.43;26.60;;;2.60;99.90;;;;;;5190053;28;20202;-71
2020/12/21 02:04:55;;;;;;;59.87;26.97;;;2.50;99.90;;;;;;5190388;28;20195;-69
2020/12/21 02:07:28;;;;;;;61.10;26.97;;;2.60;99.90;;;;;;5190207;28;20195;-69
2020/12/21 02:09:59;;;;;;;59.87;26.60;;;2.60;99.90;;;;;;5190365;28;20556;-71
2020/12/21 02:12:31;;;;;;;62.07;28.27;;;2.60;99.90;;;;;;5189995;28;20198;-71
2020/12/21 02:15:02;;;;;;;63.83;28.17;;;2.50;99.90;;;;;;5190270;28;20199;-70
2020/12/21 02:17:34;;;;;;;64.37;27.13;;;2.50;99.90;;;;;;5190047;28;20238;-69
2020/12/21 02:20:05;;;;;;;61.70;26.63;;;2.50;99.90;;;;;;5190288;28;20221;-69
2020/12/21 02:22:37;;;;;;;62.13;27.43;;;2.50;99.90;;;;;;5190318;28;20281;-71
2020/12/21 02:25:08;;;;;;;60.80;28.33;;;2.50;99.90;;;;;;5189734;28;20346;-71
2020/12/21 02:27:40;;;;;;;59.67;27.67;;;2.50;99.90;;;;;;5189868;28;20199;-70
2020/12/21 02:30:11;;;;;;;63.00;29.60;;;2.60;99.90;;;;;;5190424;28;20191;-70
2020/12/21 02:32:43;;;;;;;61.83;27.23;;;2.50;99.90;;;;;;5172488;28;20198;-70
2020/12/21 02:35:15;;;;;;;61.60;28.97;;;2.50;99.90;;;;;;5190117;28;20634;-71
2020/12/21 02:37:47;;;;;;;62.67;27.10;;;2.50;99.90;;;;;;5189908;28;20233;-71
2020/12/21 02:40:18;;;;;;;58.77;27.60;;;2.50;99.90;;;;;;5189709;28;20553;-70
2020/12/21 02:42:50;;;;;;;64.30;28.03;;;2.50;99.90;;;;;;5189924;28;20194;-71
2020/12/21 02:45:21;;;;;;;67.17;28.80;;;2.50;99.90;;;;;;5189485;28;20649;-71
2020/12/21 02:47:53;;;;;;;60.33;28.53;;;2.50;99.90;;;;;;5189586;28;20195;-72
2020/12/21 02:50:24;;;;;;;64.47;27.97;;;2.50;99.90;;;;;;5189729;28;20214;-71
2020/12/21 02:52:56;;;;;;;72.37;30.97;;;2.50;99.90;;;;;;5190504;28;20199;-71
2020/12/21 02:55:27;;;;;;;63.17;28.70;;;2.50;99.90;;;;;;5189128;28;20199;-72
2020/12/21 02:57:59;;;;;;;66.40;29.73;;;2.50;99.90;;;;;;5188900;28;20305;-72
2020/12/21 03:00:30;;;;;;;69.77;30.53;;;2.50;99.90;;;;;;5189468;28;20622;-70
2020/12/21 03:03:03;;;;;;;71.20;31.03;;;2.50;99.90;;;;;;5189130;28;20353;-70
2020/12/21 03:05:34;;;;;;;64.63;29.33;;;2.50;99.90;;;;;;5188836;28;20234;-70
2020/12/21 03:08:06;;;;;;;71.47;29.73;;;2.50;99.90;;;;;;5189359;28;20556;-71
2020/12/21 03:10:39;;;;;;;68.63;29.83;;;2.50;99.90;;;;;;5189156;28;20199;-72
2020/12/21 03:13:10;;;;;;;68.13;29.57;;;2.50;99.90;;;;;;5172764;28;20199;-70
2020/12/21 03:15:41;;;;;;;66.87;29.93;;;2.50;99.90;;;;;;5189450;28;20226;-69
2020/12/21 03:18:13;;;;;;;68.10;28.50;;;2.50;99.90;;;;;;5189480;28;20219;-70
2020/12/21 03:20:46;;;;;;;64.67;29.20;;;2.50;99.90;;;;;;5189480;28;20187;-72
2020/12/21 03:23:17;;;;;;;68.43;30.17;;;2.50;99.90;;;;;;5189169;28;20203;-69
2020/12/21 03:25:49;;;;;;;65.70;28.77;;;2.50;99.90;;;;;;5189704;28;20199;-71
2020/12/21 03:28:20;;;;;;;69.13;29.13;;;2.50;99.90;;;;;;5189286;28;20191;-71
2020/12/21 03:30:52;;;;;;;57.73;27.30;;;2.50;99.90;;;;;;5188991;28;20195;-71
2020/12/21 03:33:23;;;;;;;64.43;28.70;;;2.50;99.90;;;;;;5188946;28;20198;-71
2020/12/21 03:35:55;;;;;;;67.90;28.10;;;2.50;99.90;;;;;;5188897;28;20205;-70
2020/12/21 03:38:26;;;;;;;69.33;29.47;;;2.50;99.90;;;;;;5188642;28;20218;-70
2020/12/21 03:40:57;;;;;;;64.83;27.83;;;2.50;99.90;;;;;;5188158;28;20650;-71
2020/12/21 03:43:29;;;;;;;65.93;29.20;;;2.50;99.90;;;;;;5188902;28;20201;-70
2020/12/21 03:46:00;;;;;;;66.00;28.40;;;2.50;99.90;;;;;;5170926;28;20187;-71
2020/12/21 03:48:31;;;;;;;66.20;28.27;;;2.40;99.90;;;;;;5188528;28;20199;-71
2020/12/21 03:51:03;;;;;;;68.57;27.77;;;2.40;99.90;;;;;;5188005;28;20202;-71
2020/12/21 03:53:35;;;;;;;61.90;28.03;;;2.40;99.90;;;;;;5191305;28;20197;-72
2020/12/21 03:56:06;;;;;;;64.10;28.00;;;2.40;99.90;;;;;;5188399;28;20556;-71
2020/12/21 04:02:23;;;;;;;62.93;26.47;;;2.40;99.90;;;;;;5188133;28;20547;-71
2020/12/21 04:04:54;;;;;;;65.73;27.13;;;2.40;99.90;;;;;;5188490;28;20195;-71
2020/12/21 04:07:26;;;;;;;59.67;28.10;;;2.40;99.90;;;;;;5187978;28;20650;-69
2020/12/21 04:09:57;;;;;;;64.33;27.17;;;2.40;99.90;;;;;;5187351;28;20601;-71
2020/12/21 04:12:28;;;;;;;64.53;27.43;;;2.40;99.90;;;;;;5187936;28;20552;-71
2020/12/21 04:19:10;;;;;;;61.27;27.17;;;2.40;99.90;;;;;;5184217;28;20723;-71
2020/12/21 04:21:41;;;;;;;64.17;27.50;;;2.30;99.90;;;;;;5187614;28;20521;-70
2020/12/21 04:24:12;;;;;;;60.73;28.03;;;2.30;99.90;;;;;;5187438;28;20198;-70
2020/12/21 04:26:44;;;;;;;67.53;30.03;;;2.30;99.90;;;;;;5187656;28;20202;-69
2020/12/21 04:33:11;;;;;;;75.83;30.80;;;2.20;99.90;;;;;;5187389;28;20225;-70
2020/12/21 04:35:42;;;;;;;66.27;28.03;;;2.20;99.90;;;;;;5187870;28;20206;-70
2020/12/21 04:38:14;;;;;;;71.23;29.07;;;2.20;99.90;;;;;;5187549;28;20222;-70
2020/12/21 04:40:54;;;;;;;77.80;30.57;;;2.20;99.90;;;;;;5188071;28;20618;-72
2020/12/21 04:43:25;;;;;;;71.10;30.57;;;2.20;99.90;;;;;;5187584;28;20199;-70
2020/12/21 04:49:57;;;;;;;70.33;28.33;;;2.20;99.90;;;;;;5187348;28;20225;-70
2020/12/21 04:52:30;;;;;;;64.17;27.77;;;2.20;99.90;;;;;;5187456;28;20656;-70
2020/12/21 04:55:03;;;;;;;70.60;29.70;;;2.20;99.90;;;;;;5187880;28;20191;-72
2020/12/21 04:57:35;;;;;;;63.63;29.40;;;2.20;99.90;;;;;;5186730;28;20230;-70
2020/12/21 05:00:07;;;;;;;67.30;29.67;;;2.20;99.90;;;;;;5187224;28;20199;-71
2020/12/21 05:02:40;;;;;;;73.73;30.87;;;2.30;99.90;;;;;;5186724;28;20209;-71
2020/12/21 05:05:11;;;;;;;72.83;31.43;;;2.30;99.90;;;;;;5186831;28;20199;-71
2020/12/21 05:07:43;;;;;;;69.30;29.03;;;2.30;99.90;;;;;;5186763;28;20202;-70
2020/12/21 05:10:14;;;;;;;72.97;31.53;;;2.30;99.90;;;;;;5169822;28;20195;-70
2020/12/21 05:12:46;;;;;;;76.30;33.03;;;2.30;99.90;;;;;;5186717;28;20195;-69
2020/12/21 05:15:20;;;;;;;73.90;32.67;;;2.30;99.90;;;;;;5188057;28;20207;-72
2020/12/21 05:18:05;;;;;;;79.20;31.87;;;2.30;99.90;;;;;;5188206;28;20230;-70
2020/12/21 05:20:40;;;;;;;73.57;30.97;;;2.30;99.90;;;;;;5187827;28;20195;-69
2020/12/21 05:23:16;;;;;;;74.70;31.70;;;2.30;99.90;;;;;;5187975;28;20562;-71
2020/12/21 05:25:57;;;;;;;75.77;31.40;;;2.20;99.90;;;;;;5188732;28;20264;-73
2020/12/21 05:28:34;;;;;;;80.43;33.00;;;2.20;99.90;;;;;;5171043;28;20278;-71
2020/12/21 05:31:07;;;;;;;72.70;32.07;;;2.20;99.90;;;;;;5186683;28;20194;-72
2020/12/21 05:33:46;;;;;;;70.77;31.17;;;2.20;99.90;;;;;;5169256;28;20191;-71
2020/12/21 05:36:22;;;;;;;68.70;31.77;;;2.20;99.90;;;;;;5186413;28;20204;-70
2020/12/21 05:39:02;;;;;;;72.97;31.67;;;2.30;99.90;;;;;;5186769;28;20222;-71
2020/12/21 05:41:33;;;;;;;67.73;30.73;;;2.20;99.90;;;;;;5169285;28;20222;-69
2020/12/21 05:48:02;;;;;;;80.57;32.67;;;2.20;99.90;;;;;;5186860;28;20175;-70
2020/12/21 05:50:40;;;;;;;72.27;31.33;;;2.20;99.90;;;;;;5186514;28;20206;-69
2020/12/21 05:53:12;;;;;;;74.97;32.13;;;2.20;99.90;;;;;;5187112;28;20194;-72
2020/12/21 05:55:47;;;;;;;72.00;33.50;;;2.20;99.90;;;;;;5186706;28;20226;-71
2020/12/21 05:58:19;;;;;;;71.80;32.23;;;2.20;99.90;;;;;;5168518;28;20222;-72
2020/12/21 06:04:49;;;;;;;66.73;30.27;;;2.20;99.90;;;;;;5186083;28;20178;-72
2020/12/21 06:07:22;;;;;;;81.93;32.80;;;2.20;99.90;;;;;;5186070;28;20186;-72
2020/12/21 06:09:57;;;;;;;73.10;31.93;;;2.20;99.90;;;;;;5186072;28;20246;-71
2020/12/21 06:12:33;;;;;;;80.70;31.90;;;2.20;99.90;;;;;;5186230;28;20211;-72
2020/12/21 06:15:10;;;;;;;73.77;33.13;;;2.20;99.90;;;;;;5185994;28;20191;-72
2020/12/21 06:17:42;;;;;;;75.70;33.50;;;2.20;99.90;;;;;;5185907;28;20242;-70
2020/12/21 06:20:24;;;;;;;75.50;32.27;;;2.20;99.90;;;;;;5186294;28;20199;-72
2020/12/21 06:22:55;;;;;;;80.57;35.10;;;2.20;99.90;;;;;;5168408;28;20202;-70
2020/12/21 06:25:26;;;;;;;77.20;34.13;;;2.20;99.90;;;;;;5186241;28;20191;-70
2020/12/21 06:28:07;;;;;;;73.67;32.90;;;2.20;99.90;;;;;;5186227;28;20195;-69
2020/12/21 06:30:38;;;;;;;70.47;31.37;;;2.20;99.90;;;;;;5168470;28;20595;-70
2020/12/21 06:33:10;;;;;;;79.47;34.33;;;2.20;99.90;;;;;;5187216;28;20195;-71
2020/12/21 06:35:42;;;;;;;72.83;32.07;;;2.20;99.90;;;;;;5189539;28;20241;-69
2020/12/21 06:38:15;;;;;;;81.83;34.97;;;2.20;99.90;;;;;;5189463;28;20250;-72
2020/12/21 06:40:47;;;;;;;77.90;33.87;;;2.20;99.90;;;;;;5189431;28;20203;-73
2020/12/21 06:43:18;;;;;;;82.30;33.90;;;2.20;99.90;;;;;;5189453;28;20199;-73
2020/12/21 06:45:49;;;;;;;78.70;32.83;;;2.30;99.90;;;;;;5189997;28;20191;-74
2020/12/21 06:48:37;;;;;;;77.37;32.47;;;2.30;99.90;;;;;;5189862;28;20195;-76
2020/12/21 06:51:13;;;;;;;78.43;34.30;;;2.30;99.90;;;;;;5189721;28;20592;-77
2020/12/21 06:54:00;;;;;;;73.57;32.90;;;2.30;99.90;;;;;;5189720;28;20222;-75
2020/12/21 06:56:32;;;;;;;74.70;30.77;;;2.30;99.90;;;;;;5189790;28;20191;-75
2020/12/21 06:59:09;;;;;;;78.77;32.57;;;2.30;99.90;;;;;;5189354;28;20225;-74
2020/12/21 07:01:42;;;;;;;73.73;31.13;;;2.30;99.90;;;;;;5189382;28;20187;-74
2020/12/21 07:06:55;;;;;;;70.57;31.53;;;2.40;99.90;;;;;;5441064;23;21359;-76
2020/12/21 07:09:31;;;;;;;62.13;28.47;;;2.40;99.90;;;;;;5231723;28;20223;-81
2020/12/21 07:12:08;;;;;;;73.37;32.00;;;2.40;99.90;;;;;;5225041;28;20594;-73
2020/12/21 07:14:40;;;;;;;68.07;31.57;;;2.40;99.90;;;;;;5224381;28;20205;-77
2020/12/21 07:17:16;;;;;;;74.73;32.27;;;2.40;99.90;;;;;;5228208;28;20554;-77
2020/12/21 07:19:47;;;;;;;65.47;30.07;;;2.40;99.90;;;;;;5232880;28;20229;-75
2020/12/21 07:22:19;;;;;;;65.33;31.07;;;2.40;99.90;;;;;;5228543;28;20194;-77
2020/12/21 07:24:50;;;;;;;64.43;29.87;;;2.50;99.90;;;;;;5225442;28;20228;-76
2020/12/21 07:27:22;;;;;;;70.73;31.83;;;2.50;99.90;;;;;;5229743;28;20645;-73
2020/12/21 07:29:53;;;;;;;62.77;30.23;;;2.50;99.90;;;;;;5228959;28;20193;-73
2020/12/21 07:32:28;;;;;;;67.83;30.53;;;2.60;99.90;;;;;;5229427;28;20190;-73
2020/12/21 07:34:59;;;;;;;65.50;29.73;;;2.60;99.90;;;;;;5168381;28;20193;-73
2020/12/21 07:37:32;;;;;;;68.47;31.43;;;2.60;99.90;;;;;;5227847;28;20198;-72
2020/12/21 07:40:04;;;;;;;66.73;32.27;;;2.70;99.90;;;;;;5228499;28;20237;-72
2020/12/21 07:42:39;;;;;;;66.27;31.27;;;2.70;99.90;;;;;;5229232;28;20190;-74
2020/12/21 07:45:12;;;;;;;66.80;29.70;;;2.70;99.90;;;;;;5228929;28;20193;-74
2020/12/21 07:47:44;;;;;;;60.30;29.63;;;2.80;99.90;;;;;;5212027;28;20202;-72
2020/12/21 07:50:16;;;;;;;63.13;31.17;;;2.80;99.90;;;;;;5228258;28;20201;-74
2020/12/21 07:52:48;;;;;;;66.97;30.30;;;2.80;99.90;;;;;;5224508;28;20209;-72
2020/12/21 07:55:19;;;;;;;62.53;30.23;;;2.80;99.90;;;;;;5227210;28;20208;-74
2020/12/21 07:57:51;;;;;;;67.17;30.10;;;2.80;99.90;;;;;;5222924;28;20202;-72
2020/12/21 08:00:22;;;;;;;66.97;30.03;;;2.80;99.90;;;;;;5223183;28;20198;-71
2020/12/21 08:03:00;;;;;;;61.63;30.50;;;2.80;99.90;;;;;;5220726;28;20189;-74
2020/12/21 08:05:37;;;;;;;59.90;30.03;;;2.80;99.90;;;;;;5131876;28;20714;-72
2020/12/21 08:08:25;;;;;;;60.50;28.70;;;2.90;99.90;;;;;;5160328;28;20296;-74
2020/12/21 08:11:00;;;;;;;63.60;28.17;;;2.90;99.90;;;;;;5202685;28;20663;-71
2020/12/21 08:13:35;;;;;;;64.13;29.80;;;2.90;99.90;;;;;;5228829;28;20198;-72
2020/12/21 08:16:09;;;;;;;61.60;29.60;;;2.90;99.90;;;;;;5228508;28;20192;-69
2020/12/21 08:18:45;;;;;;;59.17;30.17;;;2.90;99.90;;;;;;5209915;28;20218;-73
2020/12/21 08:21:17;;;;;;;69.27;31.13;;;2.90;99.90;;;;;;5228414;28;20212;-74
2020/12/21 08:23:55;;;;;;;61.83;30.40;;;2.90;99.90;;;;;;5211809;28;20194;-75
2020/12/21 08:26:27;;;;;;;62.83;29.83;;;2.90;99.90;;;;;;5228609;28;20560;-75
2020/12/21 08:28:58;;;;;;;61.93;30.43;;;2.90;99.90;;;;;;5229046;28;20461;-74
2020/12/21 08:31:30;;;;;;;60.87;31.43;;;2.90;99.90;;;;;;5228462;28;20194;-71
2020/12/21 08:34:02;;;;;;;63.03;29.53;;;2.90;99.90;;;;;;5228211;28;20562;-76
2020/12/21 08:36:40;;;;;;;63.23;30.73;;;2.90;99.90;;;;;;5228759;28;20237;-73
2020/12/21 08:39:15;;;;;;;63.40;30.90;;;2.90;99.90;;;;;;5227800;28;20228;-75
2020/12/21 08:41:52;;;;;;;67.17;30.60;;;2.90;99.90;;;;;;5227830;28;20201;-74
2020/12/21 08:44:27;;;;;;;61.93;30.70;;;3.00;99.90;;;;;;5226994;28;20198;-75
2020/12/21 08:47:00;;;;;;;69.90;32.93;;;3.00;99.90;;;;;;5194396;28;20204;-76
2020/12/21 08:49:33;;;;;;;63.83;30.77;;;3.00;99.90;;;;;;5222948;28;20635;-72
2020/12/21 08:52:04;;;;;;;65.93;30.00;;;3.00;99.90;;;;;;5225891;28;20205;-72
2020/12/21 08:54:41;;;;;;;64.20;31.13;;;3.10;99.90;;;;;;5222691;28;20201;-74
2020/12/21 08:57:13;;;;;;;61.30;30.30;;;3.10;99.90;;;;;;5226937;28;20215;-73
2020/12/21 08:59:48;;;;;;;62.03;30.43;;;3.10;99.90;;;;;;5227026;28;20295;-73
2020/12/21 09:02:25;;;;;;;61.43;29.97;;;3.10;99.90;;;;;;5227813;28;20193;-74
2020/12/21 09:04:59;;;;;;;61.63;28.93;;;3.10;99.90;;;;;;5226651;28;20284;-74
2020/12/21 09:07:48;;;;;;;66.33;30.50;;;3.10;99.90;;;;;;5211724;28;20719;-75
2020/12/21 09:10:21;;;;;;;60.87;29.57;;;3.10;99.90;;;;;;5204834;28;20236;-82
2020/12/21 09:12:53;;;;;;;63.63;29.37;;;3.10;99.90;;;;;;5228251;28;20215;-74
2020/12/21 09:15:25;;;;;;;63.90;27.90;;;3.10;99.90;;;;;;5227543;28;20204;-72
2020/12/21 09:17:58;;;;;;;58.53;29.50;;;3.10;99.90;;;;;;5228790;28;20270;-73
2020/12/21 09:20:30;;;;;;;56.80;29.13;;;3.10;99.90;;;;;;5227416;28;20607;-75
2020/12/21 09:23:04;;;;;;;64.00;30.83;;;3.10;99.90;;;;;;5226792;28;20663;-75
2020/12/21 09:25:36;;;;;;;63.70;29.73;;;3.10;99.90;;;;;;5227294;28;20189;-75
2020/12/21 09:28:12;;;;;;;62.20;28.70;;;3.10;99.90;;;;;;5227586;28;20206;-73
2020/12/21 09:30:47;;;;;;;56.10;28.77;;;3.10;99.90;;;;;;5210189;28;20190;-74
2020/12/21 09:33:21;;;;;;;59.67;28.97;;;3.10;99.90;;;;;;5209685;28;20194;-75
2020/12/21 09:35:52;;;;;;;61.67;30.00;;;3.10;99.90;;;;;;5228592;28;20206;-74
2020/12/21 09:38:24;;;;;;;58.00;28.73;;;3.10;99.90;;;;;;5231879;28;20225;-73
2020/12/21 09:40:56;;;;;;;63.77;30.73;;;3.10;99.90;;;;;;5227498;28;20320;-74
2020/12/21 09:43:30;;;;;;;59.60;28.73;;;3.00;99.90;;;;;;5227888;28;20593;-73
2020/12/21 09:46:07;;;;;;;66.97;32.13;;;3.10;99.90;;;;;;5209473;28;20228;-74
2020/12/21 09:48:40;;;;;;;64.57;30.03;;;3.10;99.90;;;;;;5227855;28;20335;-79
2020/12/21 09:51:15;;;;;;;56.53;28.23;;;3.10;99.90;;;;;;5227081;28;20203;-72
2020/12/21 09:53:50;;;;;;;58.33;28.73;;;3.10;99.90;;;;;;5227152;28;20233;-74
2020/12/21 09:56:21;;;;;;;63.53;29.63;;;3.10;99.90;;;;;;5227439;28;20209;-72
2020/12/21 09:58:53;;;;;;;60.20;28.77;;;3.10;99.90;;;;;;5227056;28;20233;-74
2020/12/21 10:01:28;;;;;;;60.67;29.40;;;3.10;99.90;;;;;;5210371;28;20216;-81
2020/12/21 10:04:04;;;;;;;63.33;28.47;;;3.10;99.90;;;;;;5210776;28;20658;-76
2020/12/21 10:06:36;;;;;;;62.77;30.30;;;3.10;99.90;;;;;;5228761;28;20248;-80
2020/12/21 10:09:09;;;;;;;59.10;27.73;;;3.10;99.90;;;;;;5231536;28;20606;-80
2020/12/21 10:11:43;;;;;;;64.03;31.10;;;3.10;99.90;;;;;;5215027;28;20209;-82
2020/12/21 10:14:15;;;;;;;60.83;27.60;;;3.10;99.90;;;;;;5213851;28;20255;-76
2020/12/21 10:16:52;;;;;;;58.17;28.57;;;3.10;99.90;;;;;;5231962;28;20276;-80
2020/12/21 10:19:26;;;;;;;57.00;28.27;;;3.10;99.90;;;;;;5213928;28;20294;-77
2020/12/21 10:22:00;;;;;;;60.53;29.70;;;3.10;99.90;;;;;;5231292;28;20545;-72
2020/12/21 10:24:35;;;;;;;59.00;28.37;;;3.20;99.90;;;;;;5231488;28;20221;-75
2020/12/21 10:27:09;;;;;;;56.67;28.07;;;3.20;99.90;;;;;;5231179;28;20248;-77
2020/12/21 10:29:42;;;;;;;59.23;29.70;;;3.20;99.90;;;;;;5232558;28;20189;-82
2020/12/21 10:32:14;;;;;;;67.20;29.93;;;3.20;99.90;;;;;;5232339;28;20212;-80
2020/12/21 10:34:46;;;;;;;56.80;28.00;;;3.20;99.90;;;;;;5231373;28;20213;-75
2020/12/21 10:37:20;;;;;;;55.97;28.03;;;3.20;99.90;;;;;;5231781;28;20209;-79
2020/12/21 10:39:55;;;;;;;61.47;27.97;;;3.20;99.90;;;;;;5231265;28;20314;-76
2020/12/21 10:42:27;;;;;;;56.83;27.50;;;3.20;99.90;;;;;;5230307;28;20204;-77
2020/12/21 10:45:01;;;;;;;54.70;28.30;;;3.20;99.90;;;;;;5230810;28;20290;-76
2020/12/21 10:47:33;;;;;;;54.73;26.90;;;3.30;99.90;;;;;;5212924;28;20224;-74
2020/12/21 10:50:05;;;;;;;56.30;28.37;;;3.30;99.90;;;;;;5230275;28;20231;-79
2020/12/21 10:52:39;;;;;;;57.93;27.83;;;3.30;99.90;;;;;;5229121;28;20213;-75
2020/12/21 10:55:14;;;;;;;60.30;28.30;;;3.30;99.90;;;;;;5223053;28;20280;-71
2020/12/21 10:57:49;;;;;;;55.90;28.57;;;3.40;99.90;;;;;;5228829;28;20211;-71
2020/12/21 11:00:24;;;;;;;59.43;27.90;;;3.40;99.90;;;;;;5229688;28;20244;-69
2020/12/21 11:02:58;;;;;;;50.63;27.20;;;3.40;99.90;;;;;;5212676;28;20197;-72
2020/12/21 11:05:33;;;;;;;56.07;28.20;;;3.40;99.90;;;;;;5231332;28;20190;-73
2020/12/21 11:08:07;;;;;;;56.87;28.20;;;3.40;99.90;;;;;;5230666;28;20205;-73
2020/12/21 11:10:39;;;;;;;57.33;28.10;;;3.40;99.90;;;;;;5229302;28;20197;-71
2020/12/21 11:13:11;;;;;;;58.30;28.00;;;3.40;99.90;;;;;;5229824;28;20654;-71
2020/12/21 11:15:45;;;;;;;57.67;27.80;;;3.40;99.90;;;;;;5229672;28;20213;-76
2020/12/21 11:18:20;;;;;;;49.93;25.70;;;3.40;99.90;;;;;;5229600;28;20198;-71
2020/12/21 11:20:51;;;;;;;52.10;25.27;;;3.40;99.90;;;;;;5228938;28;20212;-71
2020/12/21 11:23:23;;;;;;;54.73;26.87;;;3.40;99.90;;;;;;5230045;28;20216;-71
2020/12/21 11:25:55;;;;;;;56.03;26.93;;;3.40;99.90;;;;;;5229730;28;20197;-74
2020/12/21 11:28:29;;;;;;;52.07;26.70;;;3.40;99.90;;;;;;5229423;28;20549;-71
2020/12/21 11:31:02;;;;;;;55.57;26.33;;;3.40;99.90;;;;;;5229419;28;20299;-71
2020/12/21 11:33:36;;;;;;;54.53;25.40;;;3.50;99.90;;;;;;5230252;28;20656;-69
2020/12/21 11:36:12;;;;;;;51.87;25.33;;;3.50;99.90;;;;;;5229341;28;20563;-71
2020/12/21 11:38:46;;;;;;;51.83;24.97;;;3.50;99.90;;;;;;5228796;28;20225;-72
2020/12/21 11:41:18;;;;;;;49.43;24.57;;;3.50;99.90;;;;;;5218203;28;20188;-72
2020/12/21 11:44:02;;;;;;;50.47;23.33;;;3.50;99.90;;;;;;5215705;28;20320;-69
2020/12/21 11:46:47;;;;;;;49.83;24.83;;;3.50;99.90;;;;;;5198455;28;20199;-73
2020/12/21 11:49:24;;;;;;;46.40;24.40;;;3.50;99.90;;;;;;5211411;28;20195;-73
2020/12/21 11:51:56;;;;;;;46.93;23.77;;;3.50;99.90;;;;;;5220835;28;20217;-72
2020/12/21 11:54:28;;;;;;;45.10;23.13;;;3.50;99.90;;;;;;5200755;28;20200;-70
2020/12/21 11:57:05;;;;;;;48.07;24.40;;;3.50;99.90;;;;;;5218981;28;20204;-76
2020/12/21 11:59:37;;;;;;;44.17;23.50;;;3.50;99.90;;;;;;5221127;28;20296;-74
2020/12/21 12:02:09;;;;;;;41.67;21.50;;;3.50;99.90;;;;;;5209749;28;20230;-77
2020/12/21 12:04:44;;;;;;;47.47;22.63;;;3.50;99.90;;;;;;5210829;28;20205;-69
2020/12/21 12:07:16;;;;;;;39.33;21.70;;;3.50;99.90;;;;;;5211388;28;20238;-73
2020/12/21 12:09:47;;;;;;;40.47;20.57;;;3.60;99.90;;;;;;5222601;28;20194;-71
2020/12/21 12:12:19;;;;;;;40.07;20.13;;;3.60;99.90;;;;;;5218772;28;20663;-77
2020/12/21 12:14:51;;;;;;;38.03;19.20;;;3.60;99.90;;;;;;5213485;28;20781;-69
2020/12/21 12:17:23;;;;;;;34.47;18.27;;;3.60;99.90;;;;;;5223469;28;20187;-73
2020/12/21 12:19:57;;;;;;;36.63;18.73;;;3.70;99.90;;;;;;5214826;28;20221;-72
2020/12/21 12:22:29;;;;;;;36.03;17.83;;;3.70;99.90;;;;;;5215745;28;20204;-73
2020/12/21 12:25:04;;;;;;;34.07;18.67;;;3.80;99.90;;;;;;5223932;28;20548;-70
2020/12/21 12:27:36;;;;;;;33.27;19.20;;;3.80;99.90;;;;;;5212206;28;20563;-73
2020/12/21 12:30:09;;;;;;;38.43;18.97;;;3.90;99.90;;;;;;5218034;28;20208;-71
2020/12/21 12:32:41;;;;;;;40.73;19.83;;;4.00;99.90;;;;;;5192475;28;20212;-73
2020/12/21 12:35:13;;;;;;;32.33;17.37;;;4.10;99.90;;;;;;5217715;28;20239;-72
2020/12/21 12:37:44;;;;;;;33.90;16.80;;;4.10;99.90;;;;;;5198890;28;20995;-71
2020/12/21 12:40:16;;;;;;;33.03;17.03;;;4.20;99.90;;;;;;5223577;28;20236;-71
2020/12/21 12:42:50;;;;;;;35.53;18.77;;;4.20;99.90;;;;;;5209690;28;20519;-72
2020/12/21 12:45:22;;;;;;;35.90;17.40;;;4.20;99.90;;;;;;5210859;28;20216;-74
2020/12/21 12:47:54;;;;;;;38.13;18.37;;;4.20;99.90;;;;;;5206937;28;20652;-71
2020/12/21 12:50:26;;;;;;;32.77;16.93;;;4.20;99.90;;;;;;5196028;28;20210;-73
2020/12/21 12:52:59;;;;;;;27.30;15.87;;;4.20;99.90;;;;;;5205731;28;20293;-69
2020/12/21 12:55:30;;;;;;;30.10;16.73;;;4.10;99.90;;;;;;5217388;28;20202;-72
2020/12/21 12:58:02;;;;;;;27.90;15.97;;;4.20;99.90;;;;;;5210788;28;20206;-68
2020/12/21 13:00:34;;;;;;;31.67;16.17;;;4.10;99.90;;;;;;5207938;28;20731;-72
2020/12/21 13:03:06;;;;;;;30.87;17.27;;;4.20;99.90;;;;;;5204819;28;20209;-78
2020/12/21 13:05:39;;;;;;;29.87;16.33;;;4.20;99.90;;;;;;5199771;28;20186;-79
2020/12/21 13:08:11;;;;;;;32.73;17.40;;;4.20;99.90;;;;;;5198098;28;20205;-81
2020/12/21 13:10:43;;;;;;;32.37;16.27;;;4.20;99.90;;;;;;5216048;28;20721;-74
2020/12/21 13:13:15;;;;;;;29.87;16.43;;;4.20;99.90;;;;;;5200735;28;20240;-75
2020/12/21 13:15:47;;;;;;;32.83;16.57;;;4.20;99.90;;;;;;5206304;28;20244;-77
2020/12/21 13:18:19;;;;;;;35.43;17.23;;;4.20;99.90;;;;;;5214116;28;20200;-73
2020/12/21 13:20:50;;;;;;;27.43;16.07;;;4.20;99.90;;;;;;5218119;28;20217;-74
2020/12/21 13:23:22;;;;;;;33.30;17.70;;;4.20;99.90;;;;;;5223409;28;20205;-71
2020/12/21 13:25:54;;;;;;;32.97;17.23;;;4.20;99.90;;;;;;5213208;28;20202;-77
2020/12/21 13:28:26;;;;;;;34.03;16.63;;;4.20;99.90;;;;;;5214509;28;20687;-74
2020/12/21 13:31:00;;;;;;;30.90;17.53;;;4.20;99.90;;;;;;5206355;28;20217;-71